^^
Station Historical Data
Daily Summary for February 2, 2018 Units:  Metric    English   Both
« Previous Day
Next Day »
Daily Weekly Monthly Yearly Custom
  High: Low: Average:
Temperature: -17.8 °C 17.5 °C 25.7 °C
Dew Point: -17.8 °C 2.7 °C 7.7 °C
Humidity: Humidity% 17% 34%
Wind Speed: 0km/h 0km/h 1.9km/h
Wind Gust: 0km/h - -
Wind- - South
Pressure: 0 hPa 1000.2 hPa -
Precipitation: 0 mm    
Historical Graphs
 
 
Tabular Data for February 2, 2018
Time Temperature Dew Point Pressure Wind Wind Speed Wind Gust Humidity Rainfall Rate (Hourly) solar Conditions
-17.8 °C -17.8 °C 0 hPa Calm     Humidity% 0 mm SolarRadiationWatts/m^2 W/m2 Conditions
00:04 22 °C 10.8 °C 1003.3 hPa Calm     49% 0 mm 0.0 W/m2
00:09 22 °C 10.5 °C 1003.3 hPa Calm     48% 0 mm 0.0 W/m2
00:14 22 °C 10.8 °C 1003.3 hPa Calm     49% 0 mm 0.0 W/m2
00:20 22 °C 11.1 °C 1003.3 hPa Calm     50% 0 mm 0.0 W/m2
00:25 22 °C 11.1 °C 1003.3 hPa Calm     50% 0 mm 0.0 W/m2
00:30 22 °C 11.1 °C 1003.3 hPa Calm     50% 0 mm 0.0 W/m2
00:35 21.9 °C 10.7 °C 1003.3 hPa Calm     49% 0 mm 0.0 W/m2
00:40 21.9 °C 11 °C 1003.3 hPa Calm     50% 0 mm 0.0 W/m2
00:45 21.9 °C 11 °C 1003.3 hPa Calm     50% 0 mm 0.0 W/m2
00:50 21.9 °C 11 °C 1003.3 hPa Calm     50% 0 mm 0.0 W/m2
00:55 21.8 °C 10.9 °C 1003.3 hPa Calm   1.6 km/h 50% 0 mm 0.0 W/m2
01:00 21.8 °C 10.9 °C 1003.3 hPa Calm   1.6 km/h 50% 0 mm 0.0 W/m2
01:06 21.7 °C 10.8 °C 1003.3 hPa Calm   1.6 km/h 50% 0 mm 0.0 W/m2
01:11 21.7 °C 10.8 °C 1003.3 hPa Calm   1.6 km/h 50% 0 mm 0.0 W/m2
01:16 21.7 °C 10.8 °C 1003.3 hPa Calm   1.6 km/h 50% 0 mm 0.0 W/m2
01:21 21.7 °C 10.8 °C 1003.3 hPa Calm   1.6 km/h 50% 0 mm 0.0 W/m2
01:27 21.6 °C 10.7 °C 1002.9 hPa Calm     50% 0 mm 0.0 W/m2
01:32 21.6 °C 10.7 °C 1002.9 hPa Calm     50% 0 mm 0.0 W/m2
01:38 21.6 °C 10.7 °C 1002.9 hPa Calm     50% 0 mm 0.0 W/m2
01:43 21.5 °C 10.6 °C 1002.9 hPa Calm     50% 0 mm 0.0 W/m2
01:48 21.4 °C 10.2 °C 1002.6 hPa Calm     49% 0 mm 0.0 W/m2
01:54 21.4 °C 9.6 °C 1002.6 hPa Calm     47% 0 mm 0.0 W/m2
01:59 21.3 °C 9.8 °C 1002.6 hPa Calm     48% 0 mm 0.0 W/m2
02:04 21.3 °C 10.2 °C 1002.6 hPa Calm     49% 0 mm 0.0 W/m2
02:10 21.2 °C 10.4 °C 1002.6 hPa Calm   1.6 km/h 50% 0 mm 0.0 W/m2
02:15 21.1 °C 9.7 °C 1002.6 hPa Calm     48% 0 mm 0.0 W/m2
02:20 21.1 °C 8.4 °C 1002.3 hPa Calm     44% 0 mm 0.0 W/m2
02:25 20.9 °C 7.5 °C 1002.6 hPa Calm     42% 0 mm 0.0 W/m2
02:30 20.9 °C 7.5 °C 1002.6 hPa Calm     42% 0 mm 0.0 W/m2
02:35 20.8 °C 7.4 °C 1002.6 hPa Calm   1.6 km/h 42% 0 mm 0.0 W/m2
02:40 20.8 °C 7.8 °C 1002.6 hPa Calm     43% 0 mm 0.0 W/m2
02:45 20.7 °C 7.3 °C 1002.3 hPa Calm   3.2 km/h 42% 0 mm 0.0 W/m2
02:51 20.7 °C 6.6 °C 1002.3 hPa Calm   1.6 km/h 40% 0 mm 0.0 W/m2
02:56 20.6 °C 6.5 °C 1002.3 hPa Calm     40% 0 mm 0.0 W/m2
03:01 20.5 °C 7.1 °C 1002.3 hPa Calm     42% 0 mm 0.0 W/m2
03:07 20.4 °C 7.1 °C 1002.3 hPa Calm     42% 0 mm 0.0 W/m2
03:12 20.3 °C 7.3 °C 1002.3 hPa Calm     43% 0 mm 0.0 W/m2
03:17 20.2 °C 7.2 °C 1002.3 hPa Calm     43% 0 mm 0.0 W/m2
03:23 20.1 °C 6.8 °C 1002.3 hPa Calm     42% 0 mm 0.0 W/m2
03:28 19.9 °C 6.9 °C 1002.3 hPa Calm   3.2 km/h 43% 0 mm 0.0 W/m2
03:33 19.9 °C 7.3 °C 1002.6 hPa Calm   1.6 km/h 44% 0 mm 0.0 W/m2
03:38 19.8 °C 7.2 °C 1002.3 hPa Calm   1.6 km/h 44% 0 mm 0.0 W/m2
03:43 19.7 °C 7.4 °C 1002.3 hPa Calm   1.6 km/h 45% 0 mm 0.0 W/m2
03:49 19.6 °C 7.3 °C 1002.3 hPa Calm     45% 0 mm 0.0 W/m2
03:54 19.6 °C 7.3 °C 1002.3 hPa Calm     45% 0 mm 0.0 W/m2
03:59 19.5 °C 7.6 °C 1002.3 hPa NE 1.4 km/h 3.2 km/h 46% 0 mm 0.0 W/m2
04:05 19.4 °C 7.5 °C 1001.9 hPa Calm     46% 0 mm 0.0 W/m2
04:10 19.3 °C 7.7 °C 1001.9 hPa Calm   1.6 km/h 47% 0 mm 0.0 W/m2
04:15 19.2 °C 7.6 °C 1001.9 hPa Calm   3.2 km/h 47% 0 mm 0.0 W/m2
04:20 19.2 °C 7.9 °C 1001.9 hPa Calm     48% 0 mm 0.0 W/m2
04:25 19.2 °C 7.9 °C 1001.9 hPa Calm   1.6 km/h 48% 0 mm 0.0 W/m2
04:30 19.2 °C 8.2 °C 1001.9 hPa Calm     49% 0 mm 0.0 W/m2
04:35 19.2 °C 8.5 °C 1002.3 hPa Calm     50% 0 mm 0.0 W/m2
04:40 19.2 °C 8.5 °C 1001.9 hPa Calm     50% 0 mm 0.0 W/m2
04:46 19.2 °C 7.6 °C 1002.3 hPa ESE 1.4 km/h 1.6 km/h 47% 0 mm 0.0 W/m2
04:51 19.2 °C 7.3 °C 1002.3 hPa Calm     46% 0 mm 0.0 W/m2
04:56 19.2 °C 7 °C 1002.3 hPa Calm   1.6 km/h 45% 0 mm 0.0 W/m2
05:02 19.1 °C 7.2 °C 1002.3 hPa Calm     46% 0 mm 0.0 W/m2
05:07 19.1 °C 6.9 °C 1002.3 hPa Calm   1.6 km/h 45% 0 mm 0.0 W/m2
05:13 18.9 °C 7 °C 1002.6 hPa Calm   1.6 km/h 46% 0 mm 0.0 W/m2
05:19 18.8 °C 7.6 °C 1002.6 hPa East 1.4 km/h 4.8 km/h 48% 0 mm 0.0 W/m2
05:24 18.7 °C 7.5 °C 1002.6 hPa ENE 1.4 km/h 6.4 km/h 48% 0 mm 0.0 W/m2
05:29 18.7 °C 7.8 °C 1002.6 hPa East 3.2 km/h 4.8 km/h 49% 0 mm 0.0 W/m2
05:35 18.6 °C 8.6 °C 1002.6 hPa Calm   3.2 km/h 52% 0 mm 0.0 W/m2
05:40 18.5 °C 8.7 °C 1002.9 hPa Calm     53% 0 mm 0.0 W/m2
05:45 18.4 °C 8.4 °C 1002.9 hPa Calm     52% 0 mm 0.0 W/m2
05:51 18.3 °C 8.6 °C 1002.9 hPa SE 1.4 km/h 6.4 km/h 53% 0 mm 0.0 W/m2
05:56 18.2 °C 8.2 °C 1002.9 hPa SE 1.4 km/h 3.2 km/h 52% 0 mm 0.0 W/m2
06:01 18.2 °C 8.5 °C 1002.9 hPa Calm   3.2 km/h 53% 0 mm 0.0 W/m2
06:07 18.1 °C 8.4 °C 1002.9 hPa Calm     53% 0 mm 0.0 W/m2
06:13 18.1 °C 8.4 °C 1002.9 hPa Calm     53% 0 mm 0.0 W/m2
06:18 18.1 °C 8.4 °C 1002.9 hPa Calm   1.6 km/h 53% 0 mm 0.0 W/m2
06:24 17.9 °C 8.2 °C 1003.3 hPa Calm   1.6 km/h 53% 0 mm 0.0 W/m2
06:29 17.8 °C 7.8 °C 1003.3 hPa Calm   1.6 km/h 52% 0 mm 0.0 W/m2
06:34 17.8 °C 7.8 °C 1003.3 hPa Calm   1.6 km/h 52% 0 mm 0.0 W/m2
06:39 17.7 °C 8 °C 1003.3 hPa Calm     53% 0 mm 7.0 W/m2
06:44 17.7 °C 8 °C 1003.3 hPa Calm     53% 0 mm 9.0 W/m2
06:49 17.6 °C 7.9 °C 1003.3 hPa Calm     53% 0 mm 14.0 W/m2
06:54 17.6 °C 8.2 °C 1003.3 hPa Calm   1.6 km/h 54% 0 mm 21.0 W/m2
06:59 17.5 °C 8.1 °C 1003.6 hPa Calm     54% 0 mm 25.0 W/m2
07:05 17.5 °C 8.1 °C 1003.6 hPa Calm     54% 0 mm 32.0 W/m2
07:10 17.6 °C 8.2 °C 1003.6 hPa Calm     54% 0 mm 39.0 W/m2
07:15 17.6 °C 8.2 °C 1003.6 hPa Calm     54% 0 mm 42.0 W/m2
07:20 17.7 °C 8.3 °C 1003.9 hPa Calm   4.8 km/h 54% 0 mm 26.0 W/m2
07:25 17.8 °C 8.4 °C 1003.9 hPa Calm   3.2 km/h 54% 0 mm 23.0 W/m2
07:30 18 °C 8.3 °C 1003.9 hPa Calm   4.8 km/h 53% 0 mm 23.0 W/m2
07:35 18.2 °C 8.7 °C 1003.9 hPa Calm   1.6 km/h 54% 0 mm 26.0 W/m2
07:40 18.3 °C 8.6 °C 1003.9 hPa Calm   1.6 km/h 53% 0 mm 30.0 W/m2
07:46 18.4 °C 8.6 °C 1003.9 hPa ENE 1.4 km/h 1.6 km/h 53% 0 mm 25.0 W/m2
07:51 18.4 °C 8.9 °C 1003.9 hPa Calm   1.6 km/h 54% 0 mm 28.0 W/m2
07:56 18.5 °C 8.7 °C 1003.9 hPa Calm     53% 0 mm 33.0 W/m2
08:01 18.5 °C 9 °C 1003.9 hPa ENE 1.4 km/h 1.6 km/h 54% 0 mm 40.0 W/m2
08:06 18.6 °C 8.8 °C 1003.9 hPa Calm     53% 0 mm 44.0 W/m2
08:11 18.7 °C 9.2 °C 1003.9 hPa Calm     54% 0 mm 77.0 W/m2
08:16 18.8 °C 9 °C 1003.9 hPa Calm     53% 0 mm 346.0 W/m2
08:22 19 °C 8 °C 1003.9 hPa Calm     49% 0 mm 388.0 W/m2
08:27 19.4 °C 7.2 °C 1003.9 hPa Calm   1.6 km/h 45% 0 mm 411.0 W/m2
08:32 20 °C 6.3 °C 1003.9 hPa SSW 1.4 km/h 4.8 km/h 41% 0 mm 427.0 W/m2
08:38 20.7 °C 5.1 °C 1003.9 hPa Calm   6.4 km/h 36% 0 mm 452.0 W/m2
08:43 21.3 °C 4.8 °C 1003.9 hPa Calm   3.2 km/h 34% 0 mm 466.0 W/m2
08:49 22.1 °C 4.6 °C 1003.9 hPa SW 1.4 km/h 4.8 km/h 32% 0 mm 494.0 W/m2
08:54 22.8 °C 3.8 °C 1003.9 hPa Calm   4.8 km/h 29% 0 mm 515.0 W/m2
08:59 23.6 °C 4.5 °C 1004.3 hPa SSE 1.4 km/h 6.4 km/h 29% 0 mm 538.0 W/m2
09:04 24.2 °C 5 °C 1003.9 hPa SE 1.4 km/h 3.2 km/h 29% 0 mm 557.0 W/m2
09:09 24.8 °C 4.5 °C 1003.9 hPa Calm   4.8 km/h 27% 0 mm 575.0 W/m2
09:14 25.2 °C 4.9 °C 1004.3 hPa SE 3.2 km/h 4.8 km/h 27% 0 mm 596.0 W/m2
09:19 25.7 °C 4.8 °C 1004.3 hPa South 3.2 km/h 6.4 km/h 26% 0 mm 531.0 W/m2
09:25 25.9 °C 4.4 °C 1004.3 hPa Calm   9.7 km/h 25% 0 mm 635.0 W/m2
09:30 26.1 °C 5.1 °C 1004.3 hPa Calm   1.6 km/h 26% 0 mm 652.0 W/m2
09:35 26.4 °C 5.9 °C 1004.3 hPa West 3.2 km/h 4.8 km/h 27% 0 mm 663.0 W/m2
09:41 26.7 °C 5.6 °C 1004.3 hPa NNW 1.4 km/h 3.2 km/h 26% 0 mm 682.0 W/m2
09:46 26.9 °C 5.2 °C 1004.6 hPa WSW 1.4 km/h 12.9 km/h 25% 0 mm 701.0 W/m2
09:51 26.8 °C 5.7 °C 1004.6 hPa SSW 3.2 km/h 4.8 km/h 26% 0 mm 686.0 W/m2
09:56 27.1 °C 5.9 °C 1004.6 hPa ESE 1.4 km/h 3.2 km/h 26% 0 mm 742.0 W/m2
10:01 27.4 °C 6.2 °C 1004.6 hPa ENE 3.2 km/h 8 km/h 26% 0 mm 707.0 W/m2
10:06 27.9 °C 6.6 °C 1004.6 hPa SE 4.7 km/h 9.7 km/h 26% 0 mm 545.0 W/m2
10:11 28.1 °C 6.8 °C 1004.6 hPa ESE 3.2 km/h 8 km/h 26% 0 mm 786.0 W/m2
10:16 28.2 °C 7.4 °C 1004.3 hPa Calm   6.4 km/h 27% 0 mm 795.0 W/m2
10:21 28.4 °C 7.6 °C 1004.3 hPa SSE 4.7 km/h 8 km/h 27% 0 mm 812.0 W/m2
10:26 28.6 °C 7.8 °C 1004.3 hPa ENE 4.7 km/h 12.9 km/h 27% 0 mm 826.0 W/m2
10:31 28.8 °C 7.4 °C 1004.3 hPa East 3.2 km/h 3.2 km/h 26% 0 mm 842.0 W/m2
10:37 29.1 °C 7.6 °C 1004.3 hPa NNE 11.1 km/h 11.3 km/h 26% 0 mm 858.0 W/m2
10:42 29.2 °C 7.7 °C 1004.6 hPa ENE 3.2 km/h 8 km/h 26% 0 mm 708.0 W/m2
10:47 29.3 °C 7.8 °C 1004.3 hPa Calm   4.8 km/h 26% 0 mm 972.0 W/m2
10:53 29.4 °C 7.3 °C 1004.3 hPa Calm   9.7 km/h 25% 0 mm 918.0 W/m2
10:58 29.6 °C 8.1 °C 1003.9 hPa Calm   6.4 km/h 26% 0 mm 912.0 W/m2
11:04 30 °C 7.8 °C 1003.9 hPa NW 1.4 km/h 11.3 km/h 25% 0 mm 935.0 W/m2
11:09 30.2 °C 7.4 °C 1003.9 hPa East 1.4 km/h 8 km/h 24% 0 mm 860.0 W/m2
11:14 30.3 °C 8.1 °C 1003.9 hPa Calm   12.9 km/h 25% 0 mm 956.0 W/m2
11:19 30.6 °C 8.3 °C 1003.9 hPa NW 3.2 km/h 8 km/h 25% 0 mm 842.0 W/m2
11:24 30.8 °C 7.9 °C 1003.9 hPa Calm   4.8 km/h 24% 0 mm 983.0 W/m2
11:29 30.8 °C 7.9 °C 1003.9 hPa WNW 4.7 km/h 11.3 km/h 24% 0 mm 1002.0 W/m2
11:34 30.8 °C 7.9 °C 1003.9 hPa NNW 7.9 km/h 16.1 km/h 24% 0 mm 1027.0 W/m2
11:40 30.8 °C 7.9 °C 1003.9 hPa NNE 4.7 km/h 14.5 km/h 24% 0 mm 997.0 W/m2
11:45 30.9 °C 8 °C 1003.9 hPa Calm   1.6 km/h 24% 0 mm 1007.0 W/m2
11:50 31.1 °C 8.1 °C 1003.9 hPa Calm   4.8 km/h 24% 0 mm 1062.0 W/m2
11:55 31.2 °C 7.6 °C 1003.9 hPa SSE 1.4 km/h 11.3 km/h 23% 0 mm 1039.0 W/m2
12:00 31.3 °C 8.3 °C 1003.9 hPa SE 6.4 km/h 11.3 km/h 24% 0 mm 1025.0 W/m2
12:05 31.3 °C 7.7 °C 1003.6 hPa SSW 1.4 km/h 9.7 km/h 23% 0 mm 1025.0 W/m2
12:10 31 °C 7.4 °C 1003.6 hPa Calm   8 km/h 23% 0 mm 1079.0 W/m2
12:15 31.3 °C 7.7 °C 1003.6 hPa WNW 4.7 km/h 4.8 km/h 23% 0 mm 1099.0 W/m2
12:21 31.7 °C 7.4 °C 1003.6 hPa WNW 3.2 km/h 4.8 km/h 22% 0 mm 1139.0 W/m2
12:26 31.9 °C 7.5 °C 1003.6 hPa NE 6.4 km/h 11.3 km/h 22% 0 mm 1139.0 W/m2
12:31 31.9 °C 7.5 °C 1003.6 hPa Calm   9.7 km/h 22% 0 mm 1150.0 W/m2
12:36 32.1 °C 7.7 °C 1003.3 hPa East 1.4 km/h 9.7 km/h 22% 0 mm 1181.0 W/m2
12:41 32.2 °C 7.1 °C 1003.3 hPa Calm   4.8 km/h 21% 0 mm 1085.0 W/m2
12:46 32.2 °C 7.8 °C 1003.3 hPa NNE 4.7 km/h 6.4 km/h 22% 0 mm 360.0 W/m2
12:51 32.2 °C 7.1 °C 1003.3 hPa NNE 3.2 km/h 9.7 km/h 21% 0 mm 1199.0 W/m2
12:56 32.2 °C 7.8 °C 1003.3 hPa North 1.4 km/h 6.4 km/h 22% 0 mm 1259.0 W/m2
13:01 32.2 °C 7.8 °C 1003.3 hPa East 3.2 km/h 8 km/h 22% 0 mm 729.0 W/m2
13:06 32.1 °C 7 °C 1003.3 hPa NE 4.7 km/h 11.3 km/h 21% 0 mm 1250.0 W/m2
13:11 32.4 °C 7.3 °C 1002.9 hPa West 1.4 km/h 6.4 km/h 21% 0 mm 1178.0 W/m2
13:16 32.3 °C 7.2 °C 1002.9 hPa WNW 3.2 km/h 6.4 km/h 21% 0 mm 246.0 W/m2
13:21 32.1 °C 7 °C 1002.9 hPa Calm   1.6 km/h 21% 0 mm 260.0 W/m2
13:27 32.1 °C 7.7 °C 1002.9 hPa NNW 1.4 km/h 3.2 km/h 22% 0 mm 285.0 W/m2
13:32 31.9 °C 6.9 °C 1002.9 hPa South 9.7 km/h 12.9 km/h 21% 0 mm 299.0 W/m2
13:37 31.4 °C 7.1 °C 1002.9 hPa SW 1.4 km/h 4.8 km/h 22% 0 mm 1241.0 W/m2
13:42 31.5 °C 7.2 °C 1002.6 hPa South 3.2 km/h 9.7 km/h 22% 0 mm 1187.0 W/m2
13:47 31.6 °C 7.3 °C 1002.6 hPa WSW 1.4 km/h 12.9 km/h 22% 0 mm 232.0 W/m2
13:52 31.4 °C 7.1 °C 1002.6 hPa South 6.4 km/h 6.4 km/h 22% 0 mm 246.0 W/m2
13:57 31.1 °C 6.9 °C 1002.6 hPa Calm   9.7 km/h 22% 0 mm 278.0 W/m2
14:02 31.1 °C 6.9 °C 1002.3 hPa WSW 1.4 km/h 8 km/h 22% 0 mm 1155.0 W/m2
14:07 31.2 °C 7 °C 1002.3 hPa SE 4.7 km/h 9.7 km/h 22% 0 mm 1014.0 W/m2
14:12 31.7 °C 6.7 °C 1002.3 hPa SSW 7.9 km/h 11.3 km/h 21% 0 mm 1035.0 W/m2
14:17 32 °C 7.6 °C 1002.3 hPa SSW 6.4 km/h 6.4 km/h 22% 0 mm 1118.0 W/m2
14:23 32.1 °C 7 °C 1001.9 hPa SSW 3.2 km/h 9.7 km/h 21% 0 mm 1165.0 W/m2
14:28 32.1 °C 7 °C 1001.9 hPa SSW 4.7 km/h 12.9 km/h 21% 0 mm 1165.0 W/m2
14:33 32.4 °C 7.3 °C 1001.9 hPa SE 7.9 km/h 12.9 km/h 21% 0 mm 1072.0 W/m2
14:38 32.8 °C 6.9 °C 1001.9 hPa Calm   4.8 km/h 20% 0 mm 211.0 W/m2
14:43 32.8 °C 6.9 °C 1001.9 hPa WSW 7.9 km/h 8 km/h 20% 0 mm 1095.0 W/m2
14:48 32.9 °C 7 °C 1001.6 hPa Calm   9.7 km/h 20% 0 mm 1081.0 W/m2
14:53 33.3 °C 6.5 °C 1001.6 hPa SW 7.9 km/h 12.9 km/h 19% 0 mm 1078.0 W/m2
14:58 33.5 °C 6.7 °C 1001.6 hPa WSW 6.4 km/h 12.9 km/h 19% 0 mm 1055.0 W/m2
15:03 33.7 °C 6.9 °C 1001.6 hPa South 1.4 km/h 6.4 km/h 19% 0 mm 1027.0 W/m2
15:09 33.7 °C 6.1 °C 1001.2 hPa ENE 1.4 km/h 4.8 km/h 18% 0 mm 1072.0 W/m2
15:14 33.7 °C 6.9 °C 1001.2 hPa WSW 3.2 km/h 11.3 km/h 19% 0 mm 990.0 W/m2
15:19 33.9 °C 7 °C 1001.2 hPa West 14.3 km/h 17.7 km/h 19% 0 mm 1002.0 W/m2
15:24 33.8 °C 7 °C 1001.2 hPa SW 7.9 km/h 14.5 km/h 19% 0 mm 981.0 W/m2
15:29 33.6 °C 6.8 °C 1000.9 hPa SSE 4.7 km/h 9.7 km/h 19% 0 mm 967.0 W/m2
15:34 33.5 °C 6.7 °C 1000.9 hPa WSW 3.2 km/h 14.5 km/h 19% 0 mm 942.0 W/m2
15:39 33.6 °C 6.8 °C 1000.9 hPa West 13 km/h 19.3 km/h 19% 0 mm 960.0 W/m2
15:44 33.6 °C 6.8 °C 1000.9 hPa WSW 4.7 km/h 11.3 km/h 19% 0 mm 956.0 W/m2
15:49 33.7 °C 6.1 °C 1000.9 hPa SE 3.2 km/h 4.8 km/h 18% 0 mm 923.0 W/m2
15:54 34.1 °C 6.4 °C 1000.9 hPa Calm   8 km/h 18% 0 mm 912.0 W/m2
16:00 33.6 °C 6 °C 1000.9 hPa Calm   8 km/h 18% 0 mm 188.0 W/m2
16:05 32.7 °C 6.8 °C 1000.9 hPa South 4.7 km/h 8 km/h 20% 0 mm 195.0 W/m2
16:10 32.3 °C 6.5 °C 1000.6 hPa SSW 4.7 km/h 6.4 km/h 20% 0 mm 216.0 W/m2
16:15 32.3 °C 6.5 °C 1000.6 hPa Calm   4.8 km/h 20% 0 mm 831.0 W/m2
16:20 32.9 °C 7 °C 1000.6 hPa SE 1.4 km/h 4.8 km/h 20% 0 mm 555.0 W/m2
16:25 33.4 °C 6.6 °C 1000.6 hPa SSE 1.4 km/h 12.9 km/h 19% 0 mm 487.0 W/m2
16:30 33.7 °C 6.9 °C 1000.2 hPa SSW 7.9 km/h 12.9 km/h 19% 0 mm 759.0 W/m2
16:35 33.6 °C 6.8 °C 1000.2 hPa Calm   6.4 km/h 19% 0 mm 206.0 W/m2
16:40 33.1 °C 6.4 °C 1000.6 hPa Calm   6.4 km/h 19% 0 mm 176.0 W/m2
16:46 32.4 °C 6.6 °C 1000.6 hPa South 1.4 km/h 9.7 km/h 20% 0 mm 142.0 W/m2
16:51 32.2 °C 6.4 °C 1000.6 hPa Calm   4.8 km/h 20% 0 mm 171.0 W/m2
16:57 32.3 °C 6.5 °C 1000.2 hPa SSW 1.4 km/h 3.2 km/h 20% 0 mm 165.0 W/m2
17:02 32.3 °C 6.5 °C 1000.2 hPa SW 3.2 km/h 11.3 km/h 20% 0 mm 137.0 W/m2
17:07 32.1 °C 6.3 °C 1000.2 hPa South 7.9 km/h 12.9 km/h 20% 0 mm 141.0 W/m2
17:12 31.8 °C 6.1 °C 1000.2 hPa SSW 1.4 km/h 4.8 km/h 20% 0 mm 132.0 W/m2
17:17 31.6 °C 6.6 °C 1000.2 hPa South 6.4 km/h 8 km/h 21% 0 mm 128.0 W/m2
17:22 31.3 °C 6.4 °C 1000.2 hPa SSW 6.4 km/h 8 km/h 21% 0 mm 118.0 W/m2
17:27 31.2 °C 6.3 °C 1000.2 hPa Calm   8 km/h 21% 0 mm 104.0 W/m2
17:32 31.2 °C 6.3 °C 1000.2 hPa SSW 4.7 km/h 6.4 km/h 21% 0 mm 95.0 W/m2
17:37 31.1 °C 6.2 °C 1000.2 hPa SSW 3.2 km/h 8 km/h 21% 0 mm 90.0 W/m2
17:42 30.9 °C 6 °C 1000.2 hPa SSW 3.2 km/h 3.2 km/h 21% 0 mm 81.0 W/m2
17:47 30.8 °C 6 °C 1000.6 hPa Calm   6.4 km/h 21% 0 mm 77.0 W/m2
17:53 30.8 °C 6 °C 1000.2 hPa Calm     21% 0 mm 77.0 W/m2
17:58 30.7 °C 5.9 °C 1000.6 hPa Calm     21% 0 mm 74.0 W/m2
18:03 30.7 °C 5.9 °C 1000.6 hPa Calm   6.4 km/h 21% 0 mm 67.0 W/m2
18:08 30.7 °C 5.9 °C 1000.6 hPa Calm   3.2 km/h 21% 0 mm 62.0 W/m2
18:13 30.7 °C 5.9 °C 1000.2 hPa SSE 3.2 km/h 4.8 km/h 21% 0 mm 53.0 W/m2
18:19 30.7 °C 5.9 °C 1000.2 hPa SE 1.4 km/h 4.8 km/h 21% 0 mm 46.0 W/m2
18:24 30.7 °C 5.9 °C 1000.2 hPa SE 3.2 km/h 6.4 km/h 21% 0 mm 42.0 W/m2
18:29 30.7 °C 5.9 °C 1000.6 hPa Calm     21% 0 mm 49.0 W/m2
18:34 30.7 °C 5.9 °C 1000.6 hPa Calm     21% 0 mm 49.0 W/m2
18:39 30.7 °C 5.9 °C 1000.6 hPa Calm   1.6 km/h 21% 0 mm 49.0 W/m2
18:45 30.7 °C 5.9 °C 1000.6 hPa Calm     21% 0 mm 97.0 W/m2
18:50 30.8 °C 6 °C 1000.6 hPa Calm   1.6 km/h 21% 0 mm 114.0 W/m2
18:55 31.1 °C 6.2 °C 1000.6 hPa Calm   1.6 km/h 21% 0 mm 40.0 W/m2
19:00 31.1 °C 6.2 °C 1000.6 hPa Calm   3.2 km/h 21% 0 mm 47.0 W/m2
19:05 31.2 °C 6.3 °C 1000.6 hPa Calm   1.6 km/h 21% 0 mm 46.0 W/m2
19:10 31.3 °C 5.7 °C 1000.9 hPa Calm   1.6 km/h 20% 0 mm 39.0 W/m2
19:15 31.3 °C 4.1 °C 1001.2 hPa West 3.2 km/h 12.9 km/h 18% 0 mm 33.0 W/m2
19:20 30.9 °C 3 °C 1001.2 hPa WSW 14.5 km/h 14.5 km/h 17% 0 mm 26.0 W/m2
19:25 30.3 °C 3.3 °C 1001.2 hPa WSW 4.7 km/h 16.1 km/h 18% 0 mm 19.0 W/m2
19:31 29.8 °C 2.9 °C 1001.6 hPa SW 9.7 km/h 14.5 km/h 18% 0 mm 12.0 W/m2
19:37 29.5 °C 3.4 °C 1001.6 hPa SSW 7.9 km/h 16.1 km/h 19% 0 mm 7.0 W/m2
19:42 29.2 °C 3.2 °C 1001.6 hPa SW 1.4 km/h 17.7 km/h 19% 0 mm 5.0 W/m2
19:47 28.9 °C 3 °C 1001.9 hPa South 3.2 km/h 16.1 km/h 19% 0 mm 0.0 W/m2
19:52 28.8 °C 2.9 °C 1001.9 hPa WSW 14.3 km/h 14.5 km/h 19% 0 mm 0.0 W/m2
19:57 28.6 °C 2.7 °C 1001.9 hPa West 4.7 km/h 12.9 km/h 19% 0 mm 0.0 W/m2
20:03 28.6 °C 3.4 °C 1001.9 hPa WNW 7.9 km/h 14.5 km/h 20% 0 mm 0.0 W/m2
20:08 28.4 °C 3.3 °C 1002.3 hPa SW 3.2 km/h 8 km/h 20% 0 mm 0.0 W/m2
20:13 28.4 °C 3.3 °C 1002.6 hPa SSE 1.4 km/h 11.3 km/h 20% 0 mm 0.0 W/m2
20:19 28.4 °C 7 °C 1002.9 hPa SSE 1.4 km/h 4.8 km/h 26% 0 mm 0.0 W/m2
20:25 28.3 °C 9.6 °C 1002.9 hPa SE 9.7 km/h 14.5 km/h 31% 0 mm 0.0 W/m2
20:30 28 °C 10.2 °C 1002.9 hPa Calm   11.3 km/h 33% 0 mm 0.0 W/m2
20:35 27.7 °C 10.4 °C 1002.9 hPa Calm   6.4 km/h 34% 0 mm 0.0 W/m2
20:40 27.3 °C 10.5 °C 1002.9 hPa SE 3.2 km/h 9.7 km/h 35% 0 mm 0.0 W/m2
20:45 27.1 °C 10.3 °C 1002.9 hPa ESE 3.2 km/h 6.4 km/h 35% 0 mm 0.0 W/m2
20:50 26.9 °C 10.6 °C 1002.9 hPa SSE 3.2 km/h 12.9 km/h 36% 0 mm 0.0 W/m2
20:55 26.7 °C 10.8 °C 1002.9 hPa East 11.1 km/h 16.1 km/h 37% 0 mm 0.0 W/m2
21:00 26.5 °C 10.6 °C 1003.3 hPa ENE 7.9 km/h 9.7 km/h 37% 0 mm 0.0 W/m2
21:05 26.3 °C 10.8 °C 1003.3 hPa SSE 11.1 km/h 16.1 km/h 38% 0 mm 0.0 W/m2
21:11 26.2 °C 11.2 °C 1003.3 hPa NE 1.4 km/h 14.5 km/h 39% 0 mm 0.0 W/m2
21:16 25.9 °C 10.9 °C 1003.3 hPa ESE 9.7 km/h 12.9 km/h 39% 0 mm 0.0 W/m2
21:21 25.8 °C 11.2 °C 1003.3 hPa Calm   17.7 km/h 40% 0 mm 0.0 W/m2
21:26 25.7 °C 11.1 °C 1003.6 hPa East 7.9 km/h 12.9 km/h 40% 0 mm 0.0 W/m2
21:31 25.5 °C 10.9 °C 1003.6 hPa SSE 6.4 km/h 11.3 km/h 40% 0 mm 0.0 W/m2
21:36 25.4 °C 10.8 °C 1003.6 hPa NNE 1.4 km/h 9.7 km/h 40% 0 mm 0.0 W/m2
21:41 25.2 °C 11 °C 1003.6 hPa ENE 3.2 km/h 8 km/h 41% 0 mm 0.0 W/m2
21:46 25.1 °C 10.9 °C 1003.6 hPa SSE 1.4 km/h 8 km/h 41% 0 mm 0.0 W/m2
21:51 25.1 °C 10.9 °C 1003.6 hPa Calm   8 km/h 41% 0 mm 0.0 W/m2
21:56 24.9 °C 11.1 °C 1003.6 hPa ENE 4.7 km/h 9.7 km/h 42% 0 mm 0.0 W/m2
22:01 24.8 °C 11 °C 1003.9 hPa ESE 3.2 km/h 9.7 km/h 42% 0 mm 0.0 W/m2
22:07 24.8 °C 11 °C 1003.9 hPa SE 1.4 km/h 6.4 km/h 42% 0 mm 0.0 W/m2
22:12 24.7 °C 10.9 °C 1003.9 hPa Calm   4.8 km/h 42% 0 mm 0.0 W/m2
22:17 24.7 °C 10.6 °C 1003.9 hPa NE 1.4 km/h 1.6 km/h 41% 0 mm 0.0 W/m2
22:22 24.7 °C 10.6 °C 1003.9 hPa Calm   3.2 km/h 41% 0 mm 0.0 W/m2
22:27 24.6 °C 10.5 °C 1003.9 hPa Calm     41% 0 mm 0.0 W/m2
22:32 24.6 °C 10.5 °C 1003.9 hPa Calm   3.2 km/h 41% 0 mm 0.0 W/m2
22:37 24.5 °C 10.4 °C 1003.9 hPa Calm   3.2 km/h 41% 0 mm 0.0 W/m2
22:42 24.4 °C 10.7 °C 1004.3 hPa ESE 1.4 km/h 8 km/h 42% 0 mm 0.0 W/m2
22:48 24.3 °C 10.6 °C 1004.3 hPa SSE 1.4 km/h 6.4 km/h 42% 0 mm 0.0 W/m2
22:53 24.3 °C 10.6 °C 1004.3 hPa Calm   4.8 km/h 42% 0 mm 0.0 W/m2
22:58 24.2 °C 10.5 °C 1004.3 hPa Calm   3.2 km/h 42% 0 mm 0.0 W/m2
23:03 24.2 °C 10.1 °C 1004.3 hPa Calm   3.2 km/h 41% 0 mm 0.0 W/m2
23:08 24.2 °C 10.1 °C 1004.3 hPa Calm   4.8 km/h 41% 0 mm 0.0 W/m2
23:13 24.2 °C 9.7 °C 1004.3 hPa Calm   4.8 km/h 40% 0 mm 0.0 W/m2
23:18 24.2 °C 9.7 °C 1004.3 hPa Calm   4.8 km/h 40% 0 mm 0.0 W/m2
23:23 24.2 °C 9.7 °C 1004.3 hPa Calm   1.6 km/h 40% 0 mm 0.0 W/m2
23:28 24.2 °C 9.7 °C 1004.3 hPa SSE 1.4 km/h 3.2 km/h 40% 0 mm 0.0 W/m2
23:33 24.1 °C 10 °C 1004.3 hPa South 1.4 km/h 1.6 km/h 41% 0 mm 0.0 W/m2
23:39 24 °C 9.9 °C 1004.3 hPa Calm   3.2 km/h 41% 0 mm 0.0 W/m2
23:44 23.8 °C 9.8 °C 1004.3 hPa South 1.4 km/h 3.2 km/h 41% 0 mm 0.0 W/m2
23:49 23.6 °C 9.6 °C 1004.3 hPa South 1.4 km/h 1.6 km/h 41% 0 mm 0.0 W/m2
23:54 23.4 °C 9.8 °C 1004.6 hPa Calm   1.6 km/h 42% 0 mm 0.0 W/m2
23:59 23.3 °C 9.7 °C 1004.3 hPa Calm   1.6 km/h 42% 0 mm 0.0 W/m2
Olympia, Windhoek, Namibia
Compliments of Weather Underground - 3.25 mb